sensor_id;sensor_type;location;lat;lon;timestamp;P1;durP1;ratioP1;P2;durP2;ratioP2
80293;SDS011;69594;43.516;1.498;2023-07-29T00:01:26;3.33;;;2.60;;
80293;SDS011;69594;43.516;1.498;2023-07-29T00:03:51;3.73;;;2.47;;
80293;SDS011;69594;43.516;1.498;2023-07-29T00:06:16;4.80;;;2.40;;
80293;SDS011;69594;43.516;1.498;2023-07-29T00:08:42;6.10;;;2.97;;
80293;SDS011;69594;43.516;1.498;2023-07-29T00:11:07;5.10;;;3.10;;
80293;SDS011;69594;43.516;1.498;2023-07-29T00:13:32;4.47;;;2.90;;
80293;SDS011;69594;43.516;1.498;2023-07-29T00:15:57;3.93;;;2.80;;
80293;SDS011;69594;43.516;1.498;2023-07-29T00:18:23;4.40;;;2.57;;
80293;SDS011;69594;43.516;1.498;2023-07-29T00:20:48;5.17;;;2.80;;
80293;SDS011;69594;43.516;1.498;2023-07-29T00:23:14;4.82;;;3.60;;
80293;SDS011;69594;43.516;1.498;2023-07-29T00:25:39;6.33;;;3.40;;
80293;SDS011;69594;43.516;1.498;2023-07-29T00:28:05;4.57;;;3.07;;
80293;SDS011;69594;43.516;1.498;2023-07-29T00:30:31;5.50;;;3.17;;
80293;SDS011;69594;43.516;1.498;2023-07-29T00:32:56;4.83;;;2.70;;
80293;SDS011;69594;43.516;1.498;2023-07-29T00:35:21;4.03;;;2.60;;
80293;SDS011;69594;43.516;1.498;2023-07-29T00:37:47;5.17;;;2.87;;
80293;SDS011;69594;43.516;1.498;2023-07-29T00:40:16;4.47;;;2.87;;
80293;SDS011;69594;43.516;1.498;2023-07-29T00:42:44;4.10;;;2.85;;
80293;SDS011;69594;43.516;1.498;2023-07-29T00:45:09;5.17;;;3.07;;
80293;SDS011;69594;43.516;1.498;2023-07-29T00:47:34;4.63;;;2.77;;
80293;SDS011;69594;43.516;1.498;2023-07-29T00:50:00;4.43;;;2.50;;
80293;SDS011;69594;43.516;1.498;2023-07-29T00:52:25;4.73;;;3.20;;
80293;SDS011;69594;43.516;1.498;2023-07-29T00:54:50;4.53;;;2.90;;
80293;SDS011;69594;43.516;1.498;2023-07-29T00:57:16;5.25;;;3.22;;
80293;SDS011;69594;43.516;1.498;2023-07-29T00:59:41;4.27;;;2.93;;
80293;SDS011;69594;43.516;1.498;2023-07-29T01:02:07;6.33;;;3.17;;
80293;SDS011;69594;43.516;1.498;2023-07-29T01:04:32;5.07;;;3.00;;
80293;SDS011;69594;43.516;1.498;2023-07-29T01:17:13;4.32;;;3.00;;
80293;SDS011;69594;43.516;1.498;2023-07-29T01:20:21;4.53;;;3.35;;
80293;SDS011;69594;43.516;1.498;2023-07-29T01:22:33;5.93;;;3.17;;
80293;SDS011;69594;43.516;1.498;2023-07-29T01:24:58;7.17;;;3.50;;
80293;SDS011;69594;43.516;1.498;2023-07-29T01:27:24;4.73;;;2.93;;
80293;SDS011;69594;43.516;1.498;2023-07-29T01:29:49;4.90;;;2.65;;
80293;SDS011;69594;43.516;1.498;2023-07-29T01:32:17;4.47;;;3.03;;
80293;SDS011;69594;43.516;1.498;2023-07-29T01:34:45;4.32;;;3.10;;
80293;SDS011;69594;43.516;1.498;2023-07-29T01:37:13;7.53;;;3.27;;
80293;SDS011;69594;43.516;1.498;2023-07-29T01:39:39;3.80;;;3.08;;
80293;SDS011;69594;43.516;1.498;2023-07-29T01:42:05;4.28;;;3.13;;
80293;SDS011;69594;43.516;1.498;2023-07-29T01:44:30;5.47;;;3.10;;
80293;SDS011;69594;43.516;1.498;2023-07-29T01:46:56;4.80;;;3.35;;
80293;SDS011;69594;43.516;1.498;2023-07-29T01:49:21;5.57;;;2.90;;
80293;SDS011;69594;43.516;1.498;2023-07-29T01:51:47;5.57;;;3.30;;
80293;SDS011;69594;43.516;1.498;2023-07-29T01:54:12;4.30;;;2.90;;
80293;SDS011;69594;43.516;1.498;2023-07-29T01:56:37;5.53;;;3.30;;
80293;SDS011;69594;43.516;1.498;2023-07-29T01:59:02;4.97;;;3.27;;
80293;SDS011;69594;43.516;1.498;2023-07-29T02:01:28;4.90;;;2.97;;
80293;SDS011;69594;43.516;1.498;2023-07-29T02:03:53;4.57;;;3.30;;
80293;SDS011;69594;43.516;1.498;2023-07-29T02:06:20;5.03;;;3.03;;
80293;SDS011;69594;43.516;1.498;2023-07-29T02:08:46;4.20;;;3.27;;
80293;SDS011;69594;43.516;1.498;2023-07-29T02:11:11;5.97;;;3.30;;
80293;SDS011;69594;43.516;1.498;2023-07-29T02:13:36;4.63;;;3.30;;
80293;SDS011;69594;43.516;1.498;2023-07-29T02:16:01;5.40;;;3.30;;
80293;SDS011;69594;43.516;1.498;2023-07-29T02:18:27;4.40;;;3.67;;
80293;SDS011;69594;43.516;1.498;2023-07-29T02:20:52;4.97;;;3.20;;
80293;SDS011;69594;43.516;1.498;2023-07-29T02:23:17;4.37;;;3.23;;
80293;SDS011;69594;43.516;1.498;2023-07-29T02:25:42;4.70;;;2.97;;
80293;SDS011;69594;43.516;1.498;2023-07-29T02:28:08;4.80;;;3.40;;
80293;SDS011;69594;43.516;1.498;2023-07-29T02:30:33;4.83;;;3.13;;
80293;SDS011;69594;43.516;1.498;2023-07-29T02:32:58;4.00;;;3.10;;
80293;SDS011;69594;43.516;1.498;2023-07-29T02:35:26;4.90;;;3.55;;
80293;SDS011;69594;43.516;1.498;2023-07-29T02:37:51;4.67;;;3.10;;
80293;SDS011;69594;43.516;1.498;2023-07-29T02:40:16;3.53;;;2.67;;
80293;SDS011;69594;43.516;1.498;2023-07-29T02:42:41;3.90;;;3.03;;
80293;SDS011;69594;43.516;1.498;2023-07-29T02:45:07;7.90;;;3.63;;
80293;SDS011;69594;43.516;1.498;2023-07-29T02:47:34;4.15;;;3.10;;
80293;SDS011;69594;43.516;1.498;2023-07-29T02:50:00;5.23;;;3.23;;
80293;SDS011;69594;43.516;1.498;2023-07-29T02:52:25;4.77;;;3.10;;
80293;SDS011;69594;43.516;1.498;2023-07-29T02:54:50;4.67;;;3.00;;
80293;SDS011;69594;43.516;1.498;2023-07-29T02:57:15;3.97;;;2.80;;
80293;SDS011;69594;43.516;1.498;2023-07-29T02:59:42;4.40;;;3.00;;
80293;SDS011;69594;43.516;1.498;2023-07-29T03:02:07;3.53;;;2.83;;
80293;SDS011;69594;43.516;1.498;2023-07-29T03:04:32;5.47;;;3.20;;
80293;SDS011;69594;43.516;1.498;2023-07-29T03:06:58;4.50;;;2.87;;
80293;SDS011;69594;43.516;1.498;2023-07-29T03:09:24;4.80;;;3.00;;
80293;SDS011;69594;43.516;1.498;2023-07-29T03:11:49;4.23;;;3.50;;
80293;SDS011;69594;43.516;1.498;2023-07-29T03:14:16;4.00;;;3.00;;
80293;SDS011;69594;43.516;1.498;2023-07-29T03:16:42;8.27;;;3.73;;
80293;SDS011;69594;43.516;1.498;2023-07-29T03:19:07;3.60;;;3.03;;
80293;SDS011;69594;43.516;1.498;2023-07-29T03:21:32;6.77;;;3.43;;
80293;SDS011;69594;43.516;1.498;2023-07-29T03:23:57;5.33;;;3.17;;
80293;SDS011;69594;43.516;1.498;2023-07-29T03:26:23;5.17;;;3.13;;
80293;SDS011;69594;43.516;1.498;2023-07-29T03:28:48;17.20;;;3.37;;
80293;SDS011;69594;43.516;1.498;2023-07-29T03:31:13;5.97;;;3.50;;
80293;SDS011;69594;43.516;1.498;2023-07-29T03:33:38;6.57;;;3.23;;
80293;SDS011;69594;43.516;1.498;2023-07-29T03:36:04;5.30;;;3.00;;
80293;SDS011;69594;43.516;1.498;2023-07-29T03:38:29;4.60;;;3.00;;
80293;SDS011;69594;43.516;1.498;2023-07-29T03:40:54;4.70;;;3.20;;
80293;SDS011;69594;43.516;1.498;2023-07-29T03:43:20;4.83;;;3.27;;
80293;SDS011;69594;43.516;1.498;2023-07-29T03:45:45;4.63;;;3.20;;
80293;SDS011;69594;43.516;1.498;2023-07-29T03:48:10;5.40;;;3.30;;
80293;SDS011;69594;43.516;1.498;2023-07-29T03:50:36;5.82;;;3.30;;
80293;SDS011;69594;43.516;1.498;2023-07-29T03:53:02;4.70;;;3.10;;
80293;SDS011;69594;43.516;1.498;2023-07-29T03:55:27;4.03;;;2.83;;
80293;SDS011;69594;43.516;1.498;2023-07-29T03:57:54;4.55;;;3.28;;
80293;SDS011;69594;43.516;1.498;2023-07-29T04:00:19;5.90;;;3.07;;
80293;SDS011;69594;43.516;1.498;2023-07-29T04:02:45;4.80;;;3.13;;
80293;SDS011;69594;43.516;1.498;2023-07-29T04:05:10;4.67;;;2.90;;
80293;SDS011;69594;43.516;1.498;2023-07-29T04:07:36;7.47;;;3.27;;
80293;SDS011;69594;43.516;1.498;2023-07-29T04:10:01;5.50;;;3.53;;
80293;SDS011;69594;43.516;1.498;2023-07-29T04:12:27;6.88;;;3.03;;
80293;SDS011;69594;43.516;1.498;2023-07-29T04:14:52;5.67;;;3.40;;
80293;SDS011;69594;43.516;1.498;2023-07-29T04:17:18;4.70;;;3.07;;
80293;SDS011;69594;43.516;1.498;2023-07-29T04:19:43;5.80;;;3.50;;
80293;SDS011;69594;43.516;1.498;2023-07-29T04:22:08;5.50;;;3.30;;
80293;SDS011;69594;43.516;1.498;2023-07-29T04:24:33;4.23;;;3.20;;
80293;SDS011;69594;43.516;1.498;2023-07-29T04:26:58;5.50;;;3.03;;
80293;SDS011;69594;43.516;1.498;2023-07-29T04:29:24;4.67;;;3.30;;
80293;SDS011;69594;43.516;1.498;2023-07-29T04:31:49;5.40;;;3.20;;
80293;SDS011;69594;43.516;1.498;2023-07-29T04:34:15;5.00;;;3.20;;
80293;SDS011;69594;43.516;1.498;2023-07-29T04:36:40;6.50;;;3.67;;
80293;SDS011;69594;43.516;1.498;2023-07-29T04:39:05;3.97;;;2.92;;
80293;SDS011;69594;43.516;1.498;2023-07-29T04:41:31;5.30;;;3.57;;
80293;SDS011;69594;43.516;1.498;2023-07-29T04:43:56;7.83;;;3.20;;
80293;SDS011;69594;43.516;1.498;2023-07-29T04:46:21;6.60;;;3.30;;
80293;SDS011;69594;43.516;1.498;2023-07-29T04:48:46;5.83;;;3.10;;
80293;SDS011;69594;43.516;1.498;2023-07-29T04:51:12;5.43;;;3.30;;
80293;SDS011;69594;43.516;1.498;2023-07-29T04:53:37;4.00;;;3.07;;
80293;SDS011;69594;43.516;1.498;2023-07-29T04:56:03;5.70;;;3.57;;
80293;SDS011;69594;43.516;1.498;2023-07-29T04:58:28;6.63;;;3.55;;
80293;SDS011;69594;43.516;1.498;2023-07-29T05:00:55;4.27;;;3.03;;
80293;SDS011;69594;43.516;1.498;2023-07-29T05:03:20;6.75;;;3.80;;
80293;SDS011;69594;43.516;1.498;2023-07-29T05:05:45;4.50;;;3.17;;
80293;SDS011;69594;43.516;1.498;2023-07-29T05:08:10;4.50;;;3.20;;
80293;SDS011;69594;43.516;1.498;2023-07-29T05:10:36;5.77;;;3.60;;
80293;SDS011;69594;43.516;1.498;2023-07-29T05:13:01;6.20;;;3.30;;
80293;SDS011;69594;43.516;1.498;2023-07-29T05:15:26;4.60;;;3.33;;
80293;SDS011;69594;43.516;1.498;2023-07-29T05:17:51;4.57;;;3.30;;
80293;SDS011;69594;43.516;1.498;2023-07-29T05:20:17;4.80;;;3.10;;
80293;SDS011;69594;43.516;1.498;2023-07-29T05:22:42;7.17;;;3.53;;
80293;SDS011;69594;43.516;1.498;2023-07-29T05:25:07;4.27;;;3.37;;
80293;SDS011;69594;43.516;1.498;2023-07-29T05:27:32;5.37;;;2.93;;
80293;SDS011;69594;43.516;1.498;2023-07-29T05:29:58;4.93;;;3.70;;
80293;SDS011;69594;43.516;1.498;2023-07-29T05:32:23;4.40;;;3.20;;
80293;SDS011;69594;43.516;1.498;2023-07-29T05:34:48;4.40;;;3.20;;
80293;SDS011;69594;43.516;1.498;2023-07-29T05:37:14;4.70;;;3.30;;
80293;SDS011;69594;43.516;1.498;2023-07-29T05:39:39;4.97;;;3.50;;
80293;SDS011;69594;43.516;1.498;2023-07-29T05:42:04;6.50;;;3.87;;
80293;SDS011;69594;43.516;1.498;2023-07-29T05:44:30;5.30;;;3.63;;
80293;SDS011;69594;43.516;1.498;2023-07-29T05:46:58;5.68;;;3.63;;
80293;SDS011;69594;43.516;1.498;2023-07-29T05:49:23;6.20;;;4.07;;
80293;SDS011;69594;43.516;1.498;2023-07-29T05:51:48;5.37;;;3.40;;
80293;SDS011;69594;43.516;1.498;2023-07-29T05:54:15;5.37;;;3.50;;
80293;SDS011;69594;43.516;1.498;2023-07-29T05:56:40;6.10;;;4.07;;
80293;SDS011;69594;43.516;1.498;2023-07-29T05:59:05;8.27;;;4.27;;
80293;SDS011;69594;43.516;1.498;2023-07-29T06:01:30;5.23;;;3.83;;
80293;SDS011;69594;43.516;1.498;2023-07-29T06:03:56;7.07;;;4.20;;
80293;SDS011;69594;43.516;1.498;2023-07-29T06:06:21;4.80;;;3.90;;
80293;SDS011;69594;43.516;1.498;2023-07-29T06:08:48;6.00;;;4.00;;
80293;SDS011;69594;43.516;1.498;2023-07-29T06:11:13;6.10;;;3.88;;
80293;SDS011;69594;43.516;1.498;2023-07-29T06:13:39;5.33;;;4.37;;
80293;SDS011;69594;43.516;1.498;2023-07-29T06:16:04;8.63;;;4.13;;
80293;SDS011;69594;43.516;1.498;2023-07-29T06:18:29;6.10;;;4.17;;
80293;SDS011;69594;43.516;1.498;2023-07-29T06:20:54;5.77;;;3.90;;
80293;SDS011;69594;43.516;1.498;2023-07-29T06:23:20;6.20;;;4.07;;
80293;SDS011;69594;43.516;1.498;2023-07-29T06:25:45;4.43;;;3.63;;
80293;SDS011;69594;43.516;1.498;2023-07-29T06:28:10;7.50;;;4.30;;
80293;SDS011;69594;43.516;1.498;2023-07-29T06:30:35;6.43;;;4.53;;
80293;SDS011;69594;43.516;1.498;2023-07-29T06:33:01;6.73;;;4.43;;
80293;SDS011;69594;43.516;1.498;2023-07-29T06:35:28;6.93;;;4.30;;
80293;SDS011;69594;43.516;1.498;2023-07-29T06:37:53;7.20;;;4.47;;
80293;SDS011;69594;43.516;1.498;2023-07-29T06:40:18;6.70;;;4.83;;
80293;SDS011;69594;43.516;1.498;2023-07-29T06:42:44;7.97;;;5.00;;
80293;SDS011;69594;43.516;1.498;2023-07-29T06:45:09;6.47;;;4.40;;
80293;SDS011;69594;43.516;1.498;2023-07-29T06:47:35;8.35;;;4.72;;
80293;SDS011;69594;43.516;1.498;2023-07-29T06:50:00;7.77;;;4.67;;
80293;SDS011;69594;43.516;1.498;2023-07-29T06:52:25;6.63;;;5.20;;
80293;SDS011;69594;43.516;1.498;2023-07-29T06:54:51;7.07;;;5.13;;
80293;SDS011;69594;43.516;1.498;2023-07-29T06:57:16;7.13;;;4.80;;
80293;SDS011;69594;43.516;1.498;2023-07-29T06:59:41;6.40;;;4.53;;
80293;SDS011;69594;43.516;1.498;2023-07-29T07:02:06;5.70;;;4.50;;
80293;SDS011;69594;43.516;1.498;2023-07-29T07:04:32;7.20;;;4.83;;
80293;SDS011;69594;43.516;1.498;2023-07-29T07:06:57;6.07;;;4.00;;
80293;SDS011;69594;43.516;1.498;2023-07-29T07:09:22;7.70;;;4.43;;
80293;SDS011;69594;43.516;1.498;2023-07-29T07:11:48;7.07;;;5.13;;
80293;SDS011;69594;43.516;1.498;2023-07-29T07:14:13;10.13;;;5.27;;
80293;SDS011;69594;43.516;1.498;2023-07-29T07:16:38;7.07;;;4.63;;
80293;SDS011;69594;43.516;1.498;2023-07-29T07:19:04;7.50;;;4.93;;
80293;SDS011;69594;43.516;1.498;2023-07-29T07:21:29;6.83;;;4.50;;
80293;SDS011;69594;43.516;1.498;2023-07-29T07:23:55;4.67;;;4.10;;
80293;SDS011;69594;43.516;1.498;2023-07-29T07:26:20;7.87;;;5.27;;
80293;SDS011;69594;43.516;1.498;2023-07-29T07:28:45;8.30;;;5.03;;
80293;SDS011;69594;43.516;1.498;2023-07-29T07:31:10;5.63;;;4.37;;
80293;SDS011;69594;43.516;1.498;2023-07-29T07:33:36;9.90;;;4.23;;
80293;SDS011;69594;43.516;1.498;2023-07-29T07:36:01;7.07;;;3.77;;
80293;SDS011;69594;43.516;1.498;2023-07-29T07:38:26;5.80;;;3.67;;
80293;SDS011;69594;43.516;1.498;2023-07-29T07:40:52;5.67;;;4.30;;
80293;SDS011;69594;43.516;1.498;2023-07-29T07:43:19;7.40;;;3.77;;
80293;SDS011;69594;43.516;1.498;2023-07-29T07:45:44;7.03;;;3.67;;
80293;SDS011;69594;43.516;1.498;2023-07-29T07:48:09;4.37;;;3.40;;
80293;SDS011;69594;43.516;1.498;2023-07-29T07:50:36;6.37;;;3.90;;
80293;SDS011;69594;43.516;1.498;2023-07-29T07:53:02;6.37;;;4.00;;
80293;SDS011;69594;43.516;1.498;2023-07-29T07:55:27;6.50;;;3.87;;
80293;SDS011;69594;43.516;1.498;2023-07-29T07:57:52;5.97;;;3.27;;
80293;SDS011;69594;43.516;1.498;2023-07-29T08:00:17;5.40;;;3.40;;
80293;SDS011;69594;43.516;1.498;2023-07-29T08:02:44;5.17;;;3.53;;
80293;SDS011;69594;43.516;1.498;2023-07-29T08:05:09;5.50;;;3.55;;
80293;SDS011;69594;43.516;1.498;2023-07-29T08:07:35;4.93;;;3.70;;
80293;SDS011;69594;43.516;1.498;2023-07-29T08:10:00;5.20;;;3.73;;
80293;SDS011;69594;43.516;1.498;2023-07-29T08:12:25;4.70;;;3.70;;
80293;SDS011;69594;43.516;1.498;2023-07-29T08:14:51;5.28;;;3.75;;
80293;SDS011;69594;43.516;1.498;2023-07-29T08:17:17;5.60;;;3.80;;
80293;SDS011;69594;43.516;1.498;2023-07-29T08:19:42;5.53;;;4.00;;
80293;SDS011;69594;43.516;1.498;2023-07-29T08:22:07;5.10;;;3.50;;
80293;SDS011;69594;43.516;1.498;2023-07-29T08:24:32;5.87;;;3.67;;
80293;SDS011;69594;43.516;1.498;2023-07-29T08:26:59;5.60;;;3.43;;
80293;SDS011;69594;43.516;1.498;2023-07-29T08:29:24;4.93;;;3.47;;
80293;SDS011;69594;43.516;1.498;2023-07-29T08:31:49;4.97;;;3.60;;
80293;SDS011;69594;43.516;1.498;2023-07-29T08:34:16;4.20;;;3.20;;
80293;SDS011;69594;43.516;1.498;2023-07-29T08:36:41;4.83;;;3.50;;
80293;SDS011;69594;43.516;1.498;2023-07-29T08:39:06;6.57;;;3.23;;
80293;SDS011;69594;43.516;1.498;2023-07-29T08:42:14;3.77;;;2.77;;
80293;SDS011;69594;43.516;1.498;2023-07-29T08:44:21;7.32;;;3.40;;
80293;SDS011;69594;43.516;1.498;2023-07-29T08:46:50;5.17;;;3.60;;
80293;SDS011;69594;43.516;1.498;2023-07-29T08:49:16;4.80;;;3.47;;
80293;SDS011;69594;43.516;1.498;2023-07-29T08:51:48;4.78;;;3.15;;
80293;SDS011;69594;43.516;1.498;2023-07-29T08:54:13;4.83;;;2.73;;
80293;SDS011;69594;43.516;1.498;2023-07-29T08:56:40;5.05;;;3.00;;
80293;SDS011;69594;43.516;1.498;2023-07-29T08:59:05;5.35;;;3.20;;
80293;SDS011;69594;43.516;1.498;2023-07-29T09:01:31;4.53;;;2.73;;
80293;SDS011;69594;43.516;1.498;2023-07-29T09:03:57;3.90;;;2.97;;
80293;SDS011;69594;43.516;1.498;2023-07-29T09:06:22;5.10;;;3.17;;
80293;SDS011;69594;43.516;1.498;2023-07-29T09:08:49;4.40;;;2.40;;
80293;SDS011;69594;43.516;1.498;2023-07-29T09:11:15;4.85;;;3.08;;
80293;SDS011;69594;43.516;1.498;2023-07-29T09:13:42;4.22;;;2.97;;
80293;SDS011;69594;43.516;1.498;2023-07-29T09:16:07;4.53;;;2.90;;
80293;SDS011;69594;43.516;1.498;2023-07-29T09:18:33;4.38;;;3.15;;
80293;SDS011;69594;43.516;1.498;2023-07-29T09:20:59;4.10;;;3.17;;
80293;SDS011;69594;43.516;1.498;2023-07-29T09:23:28;5.72;;;3.17;;
80293;SDS011;69594;43.516;1.498;2023-07-29T09:26:00;3.87;;;3.00;;
80293;SDS011;69594;43.516;1.498;2023-07-29T09:28:25;3.78;;;2.95;;
80293;SDS011;69594;43.516;1.498;2023-07-29T09:30:52;3.78;;;3.00;;
80293;SDS011;69594;43.516;1.498;2023-07-29T09:33:18;5.03;;;2.83;;
80293;SDS011;69594;43.516;1.498;2023-07-29T09:35:44;4.87;;;3.33;;
80293;SDS011;69594;43.516;1.498;2023-07-29T09:38:13;4.18;;;3.20;;
80293;SDS011;69594;43.516;1.498;2023-07-29T09:40:39;4.25;;;3.20;;
80293;SDS011;69594;43.516;1.498;2023-07-29T09:43:05;6.37;;;3.57;;
80293;SDS011;69594;43.516;1.498;2023-07-29T09:45:32;4.47;;;2.72;;
80293;SDS011;69594;43.516;1.498;2023-07-29T09:47:58;5.63;;;3.40;;
80293;SDS011;69594;43.516;1.498;2023-07-29T09:50:24;4.77;;;3.03;;
80293;SDS011;69594;43.516;1.498;2023-07-29T09:52:50;4.80;;;3.10;;
80293;SDS011;69594;43.516;1.498;2023-07-29T09:55:19;5.55;;;2.92;;
80293;SDS011;69594;43.516;1.498;2023-07-29T09:57:44;6.07;;;3.22;;
80293;SDS011;69594;43.516;1.498;2023-07-29T10:00:13;4.90;;;2.60;;
80293;SDS011;69594;43.516;1.498;2023-07-29T10:02:42;4.65;;;3.50;;
80293;SDS011;69594;43.516;1.498;2023-07-29T10:05:08;5.80;;;3.30;;
80293;SDS011;69594;43.516;1.498;2023-07-29T10:07:37;4.07;;;2.67;;
80293;SDS011;69594;43.516;1.498;2023-07-29T10:10:06;5.65;;;3.03;;
80293;SDS011;69594;43.516;1.498;2023-07-29T10:12:32;3.25;;;2.53;;
80293;SDS011;69594;43.516;1.498;2023-07-29T10:15:01;3.57;;;2.80;;
80293;SDS011;69594;43.516;1.498;2023-07-29T10:17:27;3.60;;;3.00;;
80293;SDS011;69594;43.516;1.498;2023-07-29T10:19:53;4.35;;;2.97;;
80293;SDS011;69594;43.516;1.498;2023-07-29T10:22:19;4.03;;;3.00;;
80293;SDS011;69594;43.516;1.498;2023-07-29T10:24:45;5.90;;;3.22;;
80293;SDS011;69594;43.516;1.498;2023-07-29T10:27:11;4.90;;;3.28;;
80293;SDS011;69594;43.516;1.498;2023-07-29T10:29:40;3.80;;;2.92;;
80293;SDS011;69594;43.516;1.498;2023-07-29T10:32:07;5.55;;;3.35;;
80293;SDS011;69594;43.516;1.498;2023-07-29T10:34:33;4.17;;;3.13;;
80293;SDS011;69594;43.516;1.498;2023-07-29T10:37:00;4.43;;;3.30;;
80293;SDS011;69594;43.516;1.498;2023-07-29T10:39:26;7.23;;;3.30;;
80293;SDS011;69594;43.516;1.498;2023-07-29T10:42:01;5.57;;;3.67;;
80293;SDS011;69594;43.516;1.498;2023-07-29T10:47:23;4.78;;;3.40;;
80293;SDS011;69594;43.516;1.498;2023-07-29T10:49:50;5.82;;;3.35;;
80293;SDS011;69594;43.516;1.498;2023-07-29T10:52:27;3.63;;;2.80;;
80293;SDS011;69594;43.516;1.498;2023-07-29T10:54:52;4.68;;;3.28;;
80293;SDS011;69594;43.516;1.498;2023-07-29T10:57:30;3.87;;;3.10;;
80293;SDS011;69594;43.516;1.498;2023-07-29T10:59:55;4.10;;;3.10;;
80293;SDS011;69594;43.516;1.498;2023-07-29T11:02:21;4.40;;;3.30;;
80293;SDS011;69594;43.516;1.498;2023-07-29T11:04:52;4.55;;;3.08;;
80293;SDS011;69594;43.516;1.498;2023-07-29T11:07:19;5.23;;;3.30;;
80293;SDS011;69594;43.516;1.498;2023-07-29T11:14:57;9.35;;;3.30;;
80293;SDS011;69594;43.516;1.498;2023-07-29T11:17:22;5.83;;;3.30;;
80293;SDS011;69594;43.516;1.498;2023-07-29T11:19:48;4.87;;;3.20;;
80293;SDS011;69594;43.516;1.498;2023-07-29T11:22:14;4.85;;;3.33;;
80293;SDS011;69594;43.516;1.498;2023-07-29T11:24:43;4.68;;;2.88;;
80293;SDS011;69594;43.516;1.498;2023-07-29T11:27:12;4.72;;;3.10;;
80293;SDS011;69594;43.516;1.498;2023-07-29T11:29:37;5.33;;;3.00;;
80293;SDS011;69594;43.516;1.498;2023-07-29T11:32:02;5.28;;;3.10;;
80293;SDS011;69594;43.516;1.498;2023-07-29T11:34:34;6.10;;;3.13;;
80293;SDS011;69594;43.516;1.498;2023-07-29T11:36:59;4.82;;;3.05;;
80293;SDS011;69594;43.516;1.498;2023-07-29T11:39:25;4.70;;;3.17;;
80293;SDS011;69594;43.516;1.498;2023-07-29T11:41:50;3.80;;;3.07;;
80293;SDS011;69594;43.516;1.498;2023-07-29T11:44:18;4.97;;;3.10;;
80293;SDS011;69594;43.516;1.498;2023-07-29T11:46:44;5.28;;;3.10;;
80293;SDS011;69594;43.516;1.498;2023-07-29T11:49:09;5.53;;;3.03;;
80293;SDS011;69594;43.516;1.498;2023-07-29T11:51:34;4.17;;;2.90;;
80293;SDS011;69594;43.516;1.498;2023-07-29T11:54:00;4.37;;;2.90;;
80293;SDS011;69594;43.516;1.498;2023-07-29T11:56:25;5.20;;;3.27;;
80293;SDS011;69594;43.516;1.498;2023-07-29T11:58:50;3.92;;;2.90;;
80293;SDS011;69594;43.516;1.498;2023-07-29T12:01:16;4.70;;;2.97;;
80293;SDS011;69594;43.516;1.498;2023-07-29T12:03:41;6.70;;;2.97;;
80293;SDS011;69594;43.516;1.498;2023-07-29T12:06:07;4.85;;;3.28;;
80293;SDS011;69594;43.516;1.498;2023-07-29T12:08:32;5.17;;;3.40;;
80293;SDS011;69594;43.516;1.498;2023-07-29T12:10:58;3.73;;;3.33;;
80293;SDS011;69594;43.516;1.498;2023-07-29T12:13:23;4.73;;;3.43;;
80293;SDS011;69594;43.516;1.498;2023-07-29T12:15:49;3.67;;;2.97;;
80293;SDS011;69594;43.516;1.498;2023-07-29T12:18:14;5.07;;;2.73;;
80293;SDS011;69594;43.516;1.498;2023-07-29T12:20:40;4.70;;;2.93;;
80293;SDS011;69594;43.516;1.498;2023-07-29T12:23:05;4.80;;;3.10;;
80293;SDS011;69594;43.516;1.498;2023-07-29T12:25:32;4.22;;;2.63;;
80293;SDS011;69594;43.516;1.498;2023-07-29T12:28:04;5.53;;;3.07;;
80293;SDS011;69594;43.516;1.498;2023-07-29T12:30:30;3.95;;;3.13;;
80293;SDS011;69594;43.516;1.498;2023-07-29T12:32:55;4.93;;;3.30;;
80293;SDS011;69594;43.516;1.498;2023-07-29T12:35:21;5.83;;;3.40;;
80293;SDS011;69594;43.516;1.498;2023-07-29T12:37:46;5.40;;;3.13;;
80293;SDS011;69594;43.516;1.498;2023-07-29T12:40:21;5.37;;;3.27;;
80293;SDS011;69594;43.516;1.498;2023-07-29T12:42:47;4.53;;;3.03;;
80293;SDS011;69594;43.516;1.498;2023-07-29T12:45:14;3.92;;;2.75;;
80293;SDS011;69594;43.516;1.498;2023-07-29T12:47:40;5.50;;;3.00;;
80293;SDS011;69594;43.516;1.498;2023-07-29T12:50:05;4.38;;;3.30;;
80293;SDS011;69594;43.516;1.498;2023-07-29T12:52:31;4.07;;;2.83;;
80293;SDS011;69594;43.516;1.498;2023-07-29T12:54:56;4.87;;;3.13;;
80293;SDS011;69594;43.516;1.498;2023-07-29T12:57:21;4.47;;;3.37;;
80293;SDS011;69594;43.516;1.498;2023-07-29T12:59:46;6.87;;;3.47;;
80293;SDS011;69594;43.516;1.498;2023-07-29T13:02:12;5.17;;;3.10;;
80293;SDS011;69594;43.516;1.498;2023-07-29T13:04:37;5.70;;;3.27;;
80293;SDS011;69594;43.516;1.498;2023-07-29T13:07:02;4.13;;;3.13;;
80293;SDS011;69594;43.516;1.498;2023-07-29T13:09:28;4.43;;;2.90;;
80293;SDS011;69594;43.516;1.498;2023-07-29T13:11:53;4.93;;;3.30;;
80293;SDS011;69594;43.516;1.498;2023-07-29T13:14:18;4.53;;;3.00;;
80293;SDS011;69594;43.516;1.498;2023-07-29T13:16:43;4.00;;;3.10;;
80293;SDS011;69594;43.516;1.498;2023-07-29T13:19:09;4.67;;;3.20;;
80293;SDS011;69594;43.516;1.498;2023-07-29T13:21:34;5.60;;;3.20;;
80293;SDS011;69594;43.516;1.498;2023-07-29T13:23:59;11.83;;;3.07;;
80293;SDS011;69594;43.516;1.498;2023-07-29T13:26:24;3.80;;;3.03;;
80293;SDS011;69594;43.516;1.498;2023-07-29T13:28:49;5.17;;;3.00;;
80293;SDS011;69594;43.516;1.498;2023-07-29T13:31:15;5.17;;;3.37;;
80293;SDS011;69594;43.516;1.498;2023-07-29T13:33:40;5.63;;;3.77;;
80293;SDS011;69594;43.516;1.498;2023-07-29T13:36:06;4.88;;;3.30;;
80293;SDS011;69594;43.516;1.498;2023-07-29T13:38:33;4.73;;;3.40;;
80293;SDS011;69594;43.516;1.498;2023-07-29T13:40:58;5.30;;;3.30;;
80293;SDS011;69594;43.516;1.498;2023-07-29T13:43:23;5.47;;;3.20;;
80293;SDS011;69594;43.516;1.498;2023-07-29T13:45:49;4.37;;;2.87;;
80293;SDS011;69594;43.516;1.498;2023-07-29T13:48:15;4.13;;;3.65;;
80293;SDS011;69594;43.516;1.498;2023-07-29T13:50:40;7.67;;;3.30;;
80293;SDS011;69594;43.516;1.498;2023-07-29T13:53:06;5.20;;;3.60;;
80293;SDS011;69594;43.516;1.498;2023-07-29T13:55:31;6.15;;;3.35;;
80293;SDS011;69594;43.516;1.498;2023-07-29T13:57:56;4.23;;;3.43;;
80293;SDS011;69594;43.516;1.498;2023-07-29T14:00:22;5.17;;;2.80;;
80293;SDS011;69594;43.516;1.498;2023-07-29T14:02:47;6.37;;;3.23;;
80293;SDS011;69594;43.516;1.498;2023-07-29T14:05:12;4.53;;;3.20;;
80293;SDS011;69594;43.516;1.498;2023-07-29T14:07:39;5.32;;;3.45;;
80293;SDS011;69594;43.516;1.498;2023-07-29T14:10:04;5.43;;;3.33;;
80293;SDS011;69594;43.516;1.498;2023-07-29T14:12:29;4.53;;;3.00;;
80293;SDS011;69594;43.516;1.498;2023-07-29T14:14:55;5.57;;;3.80;;
80293;SDS011;69594;43.516;1.498;2023-07-29T14:17:20;3.80;;;3.00;;
80293;SDS011;69594;43.516;1.498;2023-07-29T14:19:45;4.70;;;3.00;;
80293;SDS011;69594;43.516;1.498;2023-07-29T14:22:10;4.40;;;3.17;;
80293;SDS011;69594;43.516;1.498;2023-07-29T14:24:36;5.37;;;3.30;;
80293;SDS011;69594;43.516;1.498;2023-07-29T14:27:01;4.77;;;3.20;;
80293;SDS011;69594;43.516;1.498;2023-07-29T14:29:28;5.55;;;3.30;;
80293;SDS011;69594;43.516;1.498;2023-07-29T14:31:53;4.20;;;3.23;;
80293;SDS011;69594;43.516;1.498;2023-07-29T14:34:18;5.17;;;3.43;;
80293;SDS011;69594;43.516;1.498;2023-07-29T14:36:43;4.90;;;3.00;;
80293;SDS011;69594;43.516;1.498;2023-07-29T14:39:09;5.17;;;3.47;;
80293;SDS011;69594;43.516;1.498;2023-07-29T14:41:34;6.93;;;4.97;;
80293;SDS011;69594;43.516;1.498;2023-07-29T14:43:59;6.60;;;3.93;;
80293;SDS011;69594;43.516;1.498;2023-07-29T14:46:24;4.83;;;3.20;;
80293;SDS011;69594;43.516;1.498;2023-07-29T14:48:50;7.43;;;3.17;;
80293;SDS011;69594;43.516;1.498;2023-07-29T14:51:15;4.23;;;3.17;;
80293;SDS011;69594;43.516;1.498;2023-07-29T14:53:40;4.37;;;3.53;;
80293;SDS011;69594;43.516;1.498;2023-07-29T14:56:06;4.40;;;3.20;;
80293;SDS011;69594;43.516;1.498;2023-07-29T14:58:31;4.43;;;3.10;;